createdAt,value
2024-04-15T00:01:45.341Z,97587.28
2024-04-15T00:04:14.972Z,97579.72
2024-04-15T00:06:42.178Z,97584.03
2024-04-15T00:09:09.391Z,97586.00
2024-04-15T00:11:36.737Z,97590.22
2024-04-15T00:14:03.786Z,97590.44
2024-04-15T00:16:32.638Z,97601.97
2024-04-15T00:18:59.970Z,97597.53
2024-04-15T00:21:27.167Z,97608.59
2024-04-15T00:23:54.356Z,97604.50
2024-04-15T00:26:21.493Z,97612.88
2024-04-15T00:28:49.353Z,97612.50
2024-04-15T00:31:16.537Z,97612.50
2024-04-15T00:33:47.970Z,97622.84
2024-04-15T00:36:15.210Z,97627.84
2024-04-15T00:38:42.276Z,97622.97
2024-04-15T00:41:09.388Z,97627.97
2024-04-15T00:43:36.479Z,97621.69
2024-04-15T00:46:03.976Z,97637.97
2024-04-15T00:48:32.546Z,97632.22
2024-04-15T00:50:59.720Z,97627.94
2024-04-15T00:53:27.155Z,97631.16
2024-04-15T00:55:58.113Z,97634.03
2024-04-15T00:58:26.848Z,97639.81
2024-04-15T01:00:55.524Z,97633.91
2024-04-15T01:03:23.748Z,97639.94
2024-04-15T01:05:51.536Z,97636.44
2024-04-15T01:08:19.111Z,97634.22
2024-04-15T01:10:55.552Z,97638.31
2024-04-15T01:13:27.943Z,97643.28
2024-04-15T01:16:02.339Z,97640.47
2024-04-15T01:18:30.663Z,97638.06
2024-04-15T01:20:59.459Z,97634.88
2024-04-15T01:23:35.121Z,97636.69
2024-04-15T01:26:02.366Z,97635.81
2024-04-15T01:28:29.448Z,97634.94
2024-04-15T01:30:56.705Z,97637.91
2024-04-15T01:33:23.870Z,97642.13
2024-04-15T01:35:51.130Z,97646.59
2024-04-15T01:38:18.255Z,97647.91
2024-04-15T01:40:45.445Z,97643.53
2024-04-15T01:43:12.942Z,97644.25
2024-04-15T01:45:40.213Z,97645.34
2024-04-15T01:48:07.731Z,97650.19
2024-04-15T01:50:34.960Z,97651.28
2024-04-15T01:53:02.155Z,97655.09
2024-04-15T01:55:29.532Z,97659.03
2024-04-15T01:57:56.639Z,97646.72
2024-04-15T02:00:23.804Z,97653.34
2024-04-15T02:02:50.930Z,97655.84
2024-04-15T02:05:18.112Z,97643.19
2024-04-15T02:07:45.331Z,97642.00
2024-04-15T02:10:12.474Z,97650.47
2024-04-15T02:12:39.607Z,97652.34
2024-04-15T02:15:07.013Z,97648.28
2024-04-15T02:17:35.809Z,97657.28
2024-04-15T02:20:02.962Z,97657.72
2024-04-15T02:22:31.543Z,97655.47
2024-04-15T02:24:58.610Z,97655.47
2024-04-15T02:27:25.705Z,97651.59
2024-04-15T02:29:52.935Z,97657.34
2024-04-15T02:32:20.586Z,97653.25
2024-04-15T02:34:48.048Z,97645.50
2024-04-15T02:37:15.191Z,97654.50
2024-04-15T02:39:42.732Z,97654.91
2024-04-15T02:42:09.957Z,97649.16
2024-04-15T02:44:37.056Z,97649.16
2024-04-15T02:47:04.509Z,97649.16
2024-04-15T02:49:31.743Z,97651.66
2024-04-15T02:51:58.829Z,97657.16
2024-04-15T02:54:25.998Z,97646.72
2024-04-15T02:56:53.248Z,97651.25
2024-04-15T02:59:20.286Z,97659.00
2024-04-15T03:01:47.430Z,97653.28
2024-04-15T03:04:14.636Z,97654.31
2024-04-15T03:06:41.881Z,97654.31
2024-04-15T03:09:09.763Z,97665.97
2024-04-15T03:11:36.929Z,97662.31
2024-04-15T03:14:04.288Z,97660.19
2024-04-15T03:16:31.534Z,97665.13
2024-04-15T03:18:58.773Z,97659.38
2024-04-15T03:21:26.209Z,97656.53
2024-04-15T03:23:53.527Z,97661.22
2024-04-15T03:26:20.669Z,97667.75
2024-04-15T03:28:47.917Z,97657.72
2024-04-15T03:31:15.096Z,97663.44
2024-04-15T03:33:42.601Z,97662.16
2024-04-15T03:36:09.864Z,97660.50
2024-04-15T03:38:38.068Z,97663.09
2024-04-15T03:41:05.292Z,97659.63
2024-04-15T03:43:35.789Z,97657.56
2024-04-15T03:46:04.200Z,97655.53
2024-04-15T03:48:33.226Z,97658.22
2024-04-15T03:51:00.390Z,97654.38
2024-04-15T03:53:28.734Z,97650.00
2024-04-15T03:55:56.750Z,97642.50
2024-04-15T03:58:24.114Z,97652.59
2024-04-15T04:00:51.464Z,97658.66
2024-04-15T04:03:19.415Z,97656.31
2024-04-15T04:06:09.483Z,97647.19
2024-04-15T04:08:41.087Z,97653.47
2024-04-15T04:11:08.862Z,97646.28
2024-04-15T04:13:37.280Z,97652.25
2024-04-15T04:16:05.166Z,97652.13
2024-04-15T04:18:33.218Z,97651.88
2024-04-15T04:21:09.778Z,97641.97
2024-04-15T04:23:37.159Z,97631.81
2024-04-15T04:26:04.821Z,97644.81
2024-04-15T04:28:32.706Z,97641.56
2024-04-15T04:31:06.532Z,97650.59
2024-04-15T04:33:36.349Z,97644.13
2024-04-15T04:36:03.628Z,97639.63
2024-04-15T04:38:31.061Z,97638.97
2024-04-15T04:41:02.090Z,97636.63
2024-04-15T04:43:29.632Z,97629.69
2024-04-15T04:45:56.836Z,97635.13
2024-04-15T04:48:24.085Z,97636.41
2024-04-15T04:50:51.732Z,97633.75
2024-04-15T04:53:19.389Z,97630.75
2024-04-15T04:55:46.566Z,97619.03
2024-04-15T04:58:14.997Z,97631.22
2024-04-15T05:00:42.177Z,97624.06
2024-04-15T05:03:09.425Z,97629.31
2024-04-15T05:05:36.588Z,97634.34
2024-04-15T05:08:03.940Z,97636.09
2024-04-15T05:10:31.313Z,97623.41
2024-04-15T05:12:58.586Z,97624.25
2024-04-15T05:15:28.034Z,97622.81
2024-04-15T05:17:55.357Z,97629.91
2024-04-15T05:20:22.612Z,97623.63
2024-04-15T05:22:49.987Z,97619.75
2024-04-15T05:25:17.327Z,97621.84
2024-04-15T05:27:44.936Z,97617.03
2024-04-15T05:30:12.513Z,97613.19
2024-04-15T05:32:39.755Z,97615.00
2024-04-15T05:35:07.141Z,97618.44
2024-04-15T05:37:34.436Z,97615.16
2024-04-15T05:40:01.704Z,97605.66
2024-04-15T05:42:30.564Z,97601.22
2024-04-15T05:44:57.622Z,97604.19
2024-04-15T05:47:25.977Z,97595.56
2024-04-15T05:49:53.144Z,97594.88
2024-04-15T05:52:20.308Z,97599.84
2024-04-15T05:54:47.480Z,97598.75
2024-04-15T05:57:14.632Z,97594.94
2024-04-15T05:59:41.939Z,97595.19
2024-04-15T06:02:09.255Z,97586.69
2024-04-15T06:04:37.036Z,97596.78
2024-04-15T06:07:04.392Z,97593.59
2024-04-15T06:09:32.288Z,97595.00
2024-04-15T06:11:59.722Z,97587.31
2024-04-15T06:14:27.280Z,97583.25
2024-04-15T06:16:55.426Z,97583.34
2024-04-15T06:19:22.982Z,97577.75
2024-04-15T06:21:50.123Z,97566.31
2024-04-15T06:24:17.314Z,97569.63
2024-04-15T06:26:44.475Z,97566.31
2024-04-15T06:29:11.602Z,97580.91
2024-04-15T06:31:38.744Z,97567.81
2024-04-15T06:34:06.171Z,97564.59
2024-04-15T06:36:33.536Z,97573.41
2024-04-15T06:39:00.959Z,97564.88
2024-04-15T06:41:28.272Z,97560.28
2024-04-15T06:43:55.465Z,97559.72
2024-04-15T06:46:24.303Z,97563.66
2024-04-15T06:48:51.556Z,97567.56
2024-04-15T06:51:18.734Z,97573.28
2024-04-15T06:53:45.878Z,97559.19
2024-04-15T06:56:13.249Z,97569.28
2024-04-15T06:58:40.530Z,97575.78
2024-04-15T07:01:08.169Z,97562.81
2024-04-15T07:03:35.470Z,97558.16
2024-04-15T07:06:02.667Z,97558.59
2024-04-15T07:08:29.727Z,97561.31
2024-04-15T07:10:57.043Z,97567.69
2024-04-15T07:13:24.358Z,97569.56
2024-04-15T07:15:51.711Z,97565.03
2024-04-15T07:18:19.044Z,97569.78
2024-04-15T07:20:47.342Z,97552.69
2024-04-15T07:23:19.607Z,97562.72
2024-04-15T07:25:51.055Z,97552.44
2024-04-15T07:28:18.747Z,97553.56
2024-04-15T07:30:45.900Z,97548.22
2024-04-15T07:33:13.098Z,97561.91
2024-04-15T07:35:41.039Z,97567.72
2024-04-15T07:38:08.409Z,97563.97
2024-04-15T07:40:36.424Z,97571.97
2024-04-15T07:43:03.942Z,97569.53
2024-04-15T07:45:31.178Z,97565.75
2024-04-15T07:47:58.478Z,97568.00
2024-04-15T07:50:26.772Z,97560.41
2024-04-15T07:52:53.960Z,97539.94
2024-04-15T07:55:21.107Z,97554.78
2024-04-15T07:57:48.331Z,97553.34
2024-04-15T08:00:15.638Z,97567.00
2024-04-15T08:02:48.878Z,97558.44
2024-04-15T08:05:20.362Z,97557.91
2024-04-15T08:07:52.189Z,97545.50
2024-04-15T08:10:29.840Z,97559.31
2024-04-15T08:12:57.053Z,97555.59
2024-04-15T08:15:24.239Z,97565.19
2024-04-15T08:17:51.686Z,97560.53
2024-04-15T08:20:18.916Z,97558.16
2024-04-15T08:22:49.252Z,97560.31
2024-04-15T08:25:17.943Z,97559.06
2024-04-15T08:27:45.381Z,97556.13
2024-04-15T08:30:12.803Z,97559.34
2024-04-15T08:32:42.399Z,97560.34
2024-04-15T08:35:10.185Z,97560.22
2024-04-15T08:37:37.417Z,97566.53
2024-04-15T08:40:06.496Z,97555.53
2024-04-15T08:42:50.470Z,97557.56
2024-04-15T08:45:20.784Z,97575.09
2024-04-15T08:47:54.390Z,97564.03
2024-04-15T08:50:23.157Z,97561.81
2024-04-15T08:52:54.367Z,97562.59
2024-04-15T08:55:26.251Z,97558.31
2024-04-15T08:57:54.490Z,97562.59
2024-04-15T09:00:23.151Z,97558.88
2024-04-15T09:02:54.206Z,97556.47
2024-04-15T09:05:21.625Z,97548.56
2024-04-15T09:07:50.866Z,97554.78
2024-04-15T09:10:18.152Z,97565.00
2024-04-15T09:12:45.535Z,97553.59
2024-04-15T09:15:15.436Z,97569.53
2024-04-15T09:17:42.998Z,97567.06
2024-04-15T09:20:11.843Z,97564.34
2024-04-15T09:22:39.173Z,97561.25
2024-04-15T09:25:07.077Z,97546.81
2024-04-15T09:27:34.383Z,97536.59
2024-04-15T09:30:02.733Z,97538.38
2024-04-15T09:32:36.935Z,97551.94
2024-04-15T09:35:07.360Z,97548.13
2024-04-15T09:37:35.827Z,97532.53
2024-04-15T09:40:05.824Z,97547.94
2024-04-15T09:42:35.050Z,97540.66
2024-04-15T09:45:03.260Z,97544.38
2024-04-15T09:47:33.447Z,97545.97
2024-04-15T09:50:00.701Z,97532.25
2024-04-15T09:52:33.210Z,97535.56
2024-04-15T09:55:08.170Z,97531.91
2024-04-15T09:57:42.700Z,97528.25
2024-04-15T10:00:18.376Z,97535.06
2024-04-15T10:03:23.899Z,97522.63
2024-04-15T10:05:55.104Z,97535.81
2024-04-15T10:08:25.679Z,97529.88
2024-04-15T10:10:53.138Z,97523.53
2024-04-15T10:13:21.086Z,97533.88
2024-04-15T10:16:00.343Z,97526.13
2024-04-15T10:18:30.598Z,97535.31
2024-04-15T10:21:00.573Z,97528.91
2024-04-15T10:23:29.444Z,97547.28
2024-04-15T10:25:56.643Z,97539.75
2024-04-15T10:28:23.982Z,97534.75
2024-04-15T10:30:51.332Z,97553.41
2024-04-15T10:33:21.503Z,97528.44
2024-04-15T10:35:53.849Z,97528.56
2024-04-15T10:38:21.452Z,97529.38
2024-04-15T10:40:50.090Z,97525.41
2024-04-15T10:48:10.759Z,97524.78
2024-04-15T10:50:41.427Z,97510.09
2024-04-15T10:53:57.952Z,97515.16
2024-04-15T10:56:52.669Z,97502.72
2024-04-15T10:59:20.230Z,97503.59
2024-04-15T11:01:47.642Z,97518.81
2024-04-15T11:04:15.672Z,97510.69
2024-04-15T11:06:43.339Z,97505.47
2024-04-15T11:09:10.993Z,97501.13
2024-04-15T11:11:41.832Z,97503.31
2024-04-15T11:14:13.964Z,97510.22
2024-04-15T11:16:51.034Z,97512.09
2024-04-15T11:19:19.755Z,97506.84
2024-04-15T11:21:47.725Z,97511.91
2024-04-15T11:24:15.385Z,97501.50
2024-04-15T11:26:46.099Z,97523.88
2024-04-15T11:29:14.921Z,97507.97
2024-04-15T11:31:43.228Z,97513.47
2024-04-15T11:34:12.107Z,97526.59
2024-04-15T11:36:41.859Z,97510.34
2024-04-15T11:39:09.212Z,97518.03
2024-04-15T11:41:37.414Z,97528.13
2024-04-15T11:44:05.092Z,97513.59
2024-04-15T11:46:32.637Z,97521.78
2024-04-15T11:49:00.725Z,97514.59
2024-04-15T11:51:28.551Z,97518.41
2024-04-15T11:53:57.322Z,97505.50
2024-04-15T11:56:24.729Z,97504.38
2024-04-15T11:58:52.370Z,97510.06
2024-04-15T12:01:20.243Z,97487.41
2024-04-15T12:03:47.673Z,97495.53
2024-04-15T12:06:18.798Z,97500.78
2024-04-15T12:08:56.639Z,97499.19
2024-04-15T12:11:24.363Z,97490.22
2024-04-15T12:13:51.562Z,97490.81
2024-04-15T12:16:18.789Z,97487.09
2024-04-15T12:18:46.130Z,97489.09
2024-04-15T12:21:13.280Z,97483.44
2024-04-15T12:23:40.390Z,97490.91
2024-04-15T12:26:08.321Z,97481.25
2024-04-15T12:28:35.533Z,97495.44
2024-04-15T12:31:02.721Z,97502.41
2024-04-15T12:33:32.565Z,97500.09
2024-04-15T12:36:00.889Z,97505.13
2024-04-15T12:38:28.266Z,97492.66
2024-04-15T12:40:55.955Z,97507.28
2024-04-15T12:43:23.191Z,97513.88
2024-04-15T12:45:50.390Z,97520.34
2024-04-15T12:48:19.435Z,97525.00
2024-04-15T12:50:49.456Z,97517.81
2024-04-15T12:53:19.899Z,97529.22
2024-04-15T12:55:47.849Z,97528.06
2024-04-15T12:58:15.219Z,97519.03
2024-04-15T13:00:43.906Z,97530.38
2024-04-15T13:03:11.850Z,97529.34
2024-04-15T13:05:39.269Z,97517.69
2024-04-15T13:08:07.091Z,97518.53
2024-04-15T13:10:34.512Z,97513.66
2024-04-15T13:13:01.872Z,97497.22
2024-04-15T13:15:29.101Z,97502.69
2024-04-15T13:17:59.764Z,97495.31
2024-04-15T13:20:27.467Z,97487.56
2024-04-15T13:22:57.689Z,97482.13
2024-04-15T13:25:24.974Z,97478.88
2024-04-15T13:27:52.169Z,97475.22
2024-04-15T13:30:19.379Z,97474.16
2024-04-15T13:32:46.990Z,97470.88
2024-04-15T13:35:14.534Z,97463.13
2024-04-15T13:37:42.219Z,97472.16
2024-04-15T13:40:09.706Z,97462.41
2024-04-15T13:42:36.898Z,97462.78
2024-04-15T13:45:04.790Z,97468.72
2024-04-15T13:47:32.623Z,97453.84
2024-04-15T13:49:59.885Z,97451.41
2024-04-15T13:52:32.013Z,97445.00
2024-04-15T13:55:00.385Z,97446.28
2024-04-15T13:57:30.301Z,97448.84
2024-04-15T13:59:58.622Z,97441.06
2024-04-15T14:02:26.939Z,97430.97
2024-04-15T14:04:54.382Z,97441.63
2024-04-15T14:07:26.788Z,97444.78
2024-04-15T14:09:58.157Z,97447.81
2024-04-15T14:12:25.419Z,97433.38
2024-04-15T14:14:52.647Z,97440.00
2024-04-15T14:17:20.594Z,97426.75
2024-04-15T14:19:48.250Z,97430.03
2024-04-15T14:22:15.583Z,97434.06
2024-04-15T14:24:43.234Z,97426.78
2024-04-15T14:27:11.090Z,97416.16
2024-04-15T14:29:40.277Z,97425.59
2024-04-15T14:32:18.128Z,97425.84
2024-04-15T14:34:47.617Z,97417.47
2024-04-15T14:37:16.428Z,97420.34
2024-04-15T14:39:43.635Z,97418.63
2024-04-15T14:42:10.963Z,97404.09
2024-04-15T14:44:38.217Z,97397.16
2024-04-15T14:47:05.835Z,97399.59
2024-04-15T14:49:33.222Z,97392.97
2024-04-15T14:52:00.482Z,97392.03
2024-04-15T14:54:27.614Z,97407.97
2024-04-15T14:56:54.952Z,97424.47
2024-04-15T14:59:22.188Z,97453.56
2024-04-15T15:01:49.461Z,97449.13
2024-04-15T15:04:18.390Z,97452.47
2024-04-15T15:06:45.649Z,97453.03
2024-04-15T15:09:14.328Z,97462.59
2024-04-15T15:11:41.448Z,97459.34
2024-04-15T15:14:08.708Z,97453.44
2024-04-15T15:16:36.165Z,97465.13
2024-04-15T15:19:04.072Z,97484.03
2024-04-15T15:21:31.215Z,97486.84
2024-04-15T15:23:58.278Z,97494.47
2024-04-15T15:26:26.089Z,97477.38
2024-04-15T15:28:53.301Z,97478.97
2024-04-15T15:31:20.496Z,97473.97
2024-04-15T15:33:51.287Z,97463.63
2024-04-15T15:36:20.385Z,97463.34
2024-04-15T15:38:48.109Z,97454.50
2024-04-15T15:41:18.279Z,97444.59
2024-04-15T15:43:45.540Z,97437.13
2024-04-15T15:46:17.955Z,97442.19
2024-04-15T15:48:46.979Z,97437.59
2024-04-15T15:51:14.140Z,97434.94
2024-04-15T15:53:42.527Z,97449.13
2024-04-15T15:56:12.177Z,97453.44
2024-04-15T15:58:40.359Z,97442.34
2024-04-15T16:01:08.126Z,97429.69
2024-04-15T16:03:35.358Z,97442.25
2024-04-15T16:06:02.986Z,97434.47
2024-04-15T16:08:31.218Z,97430.00
2024-04-15T16:10:58.514Z,97445.38
2024-04-15T16:13:25.839Z,97447.81
2024-04-15T16:15:53.046Z,97457.41
2024-04-15T16:18:20.273Z,97462.09
2024-04-15T16:20:50.140Z,97468.03
2024-04-15T16:23:17.292Z,97469.41
2024-04-15T16:25:44.441Z,97475.00
2024-04-15T16:28:12.254Z,97490.53
2024-04-15T16:30:39.394Z,97498.75
2024-04-15T16:33:06.736Z,97520.38
2024-04-15T16:35:33.968Z,97534.28
2024-04-15T16:38:01.201Z,97556.53
2024-04-15T16:40:28.629Z,97530.63
2024-04-15T16:42:55.950Z,97493.19
2024-04-15T16:45:23.466Z,97492.00
2024-04-15T16:47:51.439Z,97506.69
2024-04-15T16:50:23.956Z,97503.00
2024-04-15T16:52:51.108Z,97497.94
2024-04-15T16:55:18.627Z,97506.53
2024-04-15T16:57:45.842Z,97508.97
2024-04-15T17:00:14.348Z,97506.34
2024-04-15T17:02:41.895Z,97510.09
2024-04-15T17:05:10.108Z,97518.53
2024-04-15T17:07:41.499Z,97521.63
2024-04-15T17:10:13.259Z,97513.25
2024-04-15T17:12:45.206Z,97525.25
2024-04-15T17:15:14.339Z,97529.72
2024-04-15T17:17:43.487Z,97518.09
2024-04-15T17:20:13.766Z,97528.28
2024-04-15T17:22:42.228Z,97514.00
2024-04-15T17:25:09.570Z,97521.63
2024-04-15T17:27:37.115Z,97522.06
2024-04-15T17:30:05.383Z,97522.69
2024-04-15T17:32:32.768Z,97518.34
2024-04-15T17:35:02.373Z,97514.06
2024-04-15T17:37:31.558Z,97514.84
2024-04-15T17:40:01.221Z,97508.81
2024-04-15T17:42:31.301Z,97519.84
2024-04-15T17:44:58.487Z,97508.34
2024-04-15T17:47:25.744Z,97515.22
2024-04-15T17:49:53.516Z,97509.47
2024-04-15T17:52:21.856Z,97515.63
2024-04-15T17:54:49.312Z,97516.84
2024-04-15T17:57:17.805Z,97503.72
2024-04-15T17:59:45.428Z,97507.97
2024-04-15T18:02:13.123Z,97500.38
2024-04-15T18:04:41.645Z,97501.84
2024-04-15T18:07:11.388Z,97502.09
2024-04-15T18:09:39.871Z,97485.75
2024-04-15T18:12:08.752Z,97486.88
2024-04-15T18:14:36.226Z,97498.16
2024-04-15T18:17:03.926Z,97492.72
2024-04-15T18:19:31.331Z,97500.34
2024-04-15T18:21:58.746Z,97496.72
2024-04-15T18:24:28.858Z,97501.63
2024-04-15T18:26:56.446Z,97502.06
2024-04-15T18:29:23.808Z,97502.91
2024-04-15T18:31:51.006Z,97513.13
2024-04-15T18:34:18.220Z,97523.13
2024-04-15T18:36:48.748Z,97513.50
2024-04-15T18:39:17.031Z,97512.22
2024-04-15T18:41:44.261Z,97510.75
2024-04-15T18:44:11.524Z,97507.88
2024-04-15T18:46:38.744Z,97505.63
2024-04-15T18:49:06.990Z,97527.06
2024-04-15T18:51:34.352Z,97498.47
2024-04-15T18:54:01.504Z,97501.06
2024-04-15T18:56:28.849Z,97508.72
2024-04-15T18:58:56.013Z,97520.16
2024-04-15T19:01:23.187Z,97521.16
2024-04-15T19:03:50.583Z,97499.03
2024-04-15T19:06:18.186Z,97510.94
2024-04-15T19:08:45.297Z,97493.53
2024-04-15T19:11:12.560Z,97507.00
2024-04-15T19:13:39.725Z,97507.59
2024-04-15T19:16:08.867Z,97495.31
2024-04-15T19:18:36.349Z,97500.66
2024-04-15T19:21:03.807Z,97507.63
2024-04-15T19:23:30.904Z,97509.06
2024-04-15T19:25:58.794Z,97509.19
2024-04-15T19:28:26.065Z,97506.31
2024-04-15T19:30:53.211Z,97521.03
2024-04-15T19:33:21.725Z,97520.41
2024-04-15T19:35:49.152Z,97512.13
2024-04-15T19:38:16.441Z,97516.03
2024-04-15T19:40:43.868Z,97512.81
2024-04-15T19:43:11.194Z,97517.38
2024-04-15T19:45:38.677Z,97516.22
2024-04-15T19:48:06.332Z,97522.22
2024-04-15T19:50:33.580Z,97526.91
2024-04-15T19:53:01.151Z,97526.69
2024-04-15T19:55:28.691Z,97522.97
2024-04-15T19:57:56.147Z,97514.16
2024-04-15T20:00:23.264Z,97524.00
2024-04-15T20:02:50.649Z,97516.66
2024-04-15T20:05:17.864Z,97514.81
2024-04-15T20:07:46.829Z,97519.38
2024-04-15T20:10:14.019Z,97517.94
2024-04-15T20:12:41.239Z,97519.75
2024-04-15T20:15:08.466Z,97514.66
2024-04-15T20:17:44.173Z,97499.13
2024-04-15T20:20:16.169Z,97515.22
2024-04-15T20:22:44.364Z,97516.09
2024-04-15T20:25:12.171Z,97516.53
2024-04-15T20:27:39.744Z,97523.94
2024-04-15T20:30:08.044Z,97525.16
2024-04-15T20:32:35.279Z,97516.38
2024-04-15T20:35:02.578Z,97510.00
2024-04-15T20:37:30.821Z,97518.19
2024-04-15T20:39:58.125Z,97516.38
2024-04-15T20:42:25.241Z,97528.03
2024-04-15T20:44:54.359Z,97526.19
2024-04-15T20:47:23.170Z,97522.31
2024-04-15T20:49:50.353Z,97503.25
2024-04-15T20:52:20.178Z,97506.16
2024-04-15T20:54:47.403Z,97504.50
2024-04-15T20:57:14.652Z,97495.31
2024-04-15T20:59:41.786Z,97502.28
2024-04-15T21:02:08.935Z,97510.72
2024-04-15T21:04:36.301Z,97503.97
2024-04-15T21:07:03.938Z,97510.94
2024-04-15T21:09:31.020Z,97502.75
2024-04-15T21:12:03.869Z,97514.19
2024-04-15T21:14:31.232Z,97511.97
2024-04-15T21:16:59.328Z,97516.09
2024-04-15T21:19:26.561Z,97519.16
2024-04-15T21:21:54.033Z,97523.69
2024-04-15T21:24:21.219Z,97522.88
2024-04-15T21:26:48.475Z,97520.63
2024-04-15T21:29:15.638Z,97522.88
2024-04-15T21:31:42.838Z,97516.09
2024-04-15T21:34:10.152Z,97520.38
2024-04-15T21:36:37.264Z,97528.97
2024-04-15T21:39:04.540Z,97527.31
2024-04-15T21:41:31.747Z,97529.78
2024-04-15T21:43:58.897Z,97532.44
2024-04-15T21:46:26.025Z,97538.78
2024-04-15T21:48:53.265Z,97540.78
2024-04-15T21:51:20.790Z,97534.69
2024-04-15T21:53:47.912Z,97532.22
2024-04-15T21:56:15.050Z,97534.47
2024-04-15T21:58:43.247Z,97533.09
2024-04-15T22:01:10.401Z,97531.47
2024-04-15T22:03:37.695Z,97541.28
2024-04-15T22:06:05.143Z,97545.34
2024-04-15T22:08:33.667Z,97543.06
2024-04-15T22:11:01.135Z,97547.19
2024-04-15T22:13:28.801Z,97543.47
2024-04-15T22:15:56.023Z,97540.38
2024-04-15T22:18:23.262Z,97537.91
2024-04-15T22:20:50.488Z,97541.97
2024-04-15T22:23:17.735Z,97547.88
2024-04-15T22:25:53.431Z,97544.34
2024-04-15T22:28:21.753Z,97552.50
2024-04-15T22:30:50.420Z,97551.63
2024-04-15T22:33:18.166Z,97550.78
2024-04-15T22:35:45.436Z,97556.44
2024-04-15T22:38:15.430Z,97552.53
2024-04-15T22:40:43.228Z,97561.13
2024-04-15T22:43:12.662Z,97559.31
2024-04-15T22:45:40.460Z,97559.72
2024-04-15T22:48:07.894Z,97559.28
2024-04-15T22:50:35.149Z,97558.09
2024-04-15T22:53:02.234Z,97557.47
2024-04-15T22:55:29.485Z,97555.84
2024-04-15T22:57:56.775Z,97559.53
2024-04-15T23:00:23.873Z,97568.75
2024-04-15T23:02:51.037Z,97560.09
2024-04-15T23:05:18.207Z,97558.50
2024-04-15T23:07:45.359Z,97556.84
2024-04-15T23:10:12.560Z,97560.13
2024-04-15T23:12:39.789Z,97553.63
2024-04-15T23:15:06.841Z,97562.41
2024-04-15T23:17:34.138Z,97557.34
2024-04-15T23:20:01.437Z,97551.59
2024-04-15T23:22:30.657Z,97548.31
2024-04-15T23:24:58.240Z,97541.34
2024-04-15T23:27:25.531Z,97540.06
2024-04-15T23:29:52.707Z,97551.09
2024-04-15T23:32:19.795Z,97555.00
2024-04-15T23:34:46.800Z,97546.78
2024-04-15T23:37:13.843Z,97545.97
2024-04-15T23:39:41.038Z,97552.34
2024-04-15T23:42:08.291Z,97541.69
2024-04-15T23:44:35.343Z,97551.94
2024-04-15T23:47:21.385Z,97555.56
2024-04-15T23:50:07.586Z,97556.34
2024-04-15T23:52:54.011Z,97554.44
2024-04-15T23:55:40.210Z,97560.00
2024-04-15T23:58:13.359Z,97565.16
